sensor_id;sensor_type;location;lat;lon;timestamp;pressure;altitude;pressure_sealevel;temperature;humidity
75460;BME280;64039;53.060;9.342;2023-03-24T00:02:24;99721.19;;;10.10;100.00
75460;BME280;64039;53.060;9.342;2023-03-24T00:04:53;99720.34;;;10.11;100.00
75460;BME280;64039;53.060;9.342;2023-03-24T00:07:23;99717.69;;;10.02;100.00
75460;BME280;64039;53.060;9.342;2023-03-24T00:09:48;99720.22;;;9.91;100.00
75460;BME280;64039;53.060;9.342;2023-03-24T00:12:14;99711.59;;;9.97;100.00
75460;BME280;64039;53.060;9.342;2023-03-24T00:14:43;99713.31;;;9.96;100.00
75460;BME280;64039;53.060;9.342;2023-03-24T00:17:11;99709.84;;;9.97;100.00
75460;BME280;64039;53.060;9.342;2023-03-24T00:19:38;99696.03;;;10.03;100.00
75460;BME280;64039;53.060;9.342;2023-03-24T00:22:07;99694.25;;;9.94;100.00
75460;BME280;64039;53.060;9.342;2023-03-24T00:24:41;99694.25;;;9.91;100.00
75460;BME280;64039;53.060;9.342;2023-03-24T00:27:10;99688.16;;;9.86;100.00
75460;BME280;64039;53.060;9.342;2023-03-24T00:29:40;99682.00;;;9.73;100.00
75460;BME280;64039;53.060;9.342;2023-03-24T00:32:06;99683.72;;;9.74;100.00
75460;BME280;64039;53.060;9.342;2023-03-24T00:34:32;99674.28;;;9.87;100.00
75460;BME280;64039;53.060;9.342;2023-03-24T00:37:03;99667.34;;;9.90;100.00
75460;BME280;64039;53.060;9.342;2023-03-24T00:39:29;99664.69;;;9.75;100.00
75460;BME280;64039;53.060;9.342;2023-03-24T00:41:55;99659.53;;;9.83;100.00
75460;BME280;64039;53.060;9.342;2023-03-24T00:44:23;99662.06;;;9.67;100.00
75460;BME280;64039;53.060;9.342;2023-03-24T00:46:50;99653.41;;;9.68;100.00
75460;BME280;64039;53.060;9.342;2023-03-24T00:49:23;99649.94;;;9.69;100.00
75460;BME280;64039;53.060;9.342;2023-03-24T00:52:21;99643.03;;;9.76;100.00
75460;BME280;64039;53.060;9.342;2023-03-24T00:54:52;99640.38;;;9.64;100.00
75460;BME280;64039;53.060;9.342;2023-03-24T00:57:23;99629.94;;;9.62;100.00
75460;BME280;64039;53.060;9.342;2023-03-24T00:59:51;99624.81;;;9.71;100.00
75460;BME280;64039;53.060;9.342;2023-03-24T01:02:18;99616.13;;;9.68;100.00
75460;BME280;64039;53.060;9.342;2023-03-24T01:04:50;99613.50;;;9.62;100.00
75460;BME280;64039;53.060;9.342;2023-03-24T01:07:19;99608.34;;;9.68;100.00
75460;BME280;64039;53.060;9.342;2023-03-24T01:09:46;99592.72;;;9.60;100.00
75460;BME280;64039;53.060;9.342;2023-03-24T01:12:25;99590.97;;;9.57;100.00
75460;BME280;64039;53.060;9.342;2023-03-24T01:14:53;99585.75;;;9.48;100.00
75460;BME280;64039;53.060;9.342;2023-03-24T01:17:19;99579.69;;;9.51;100.00
75460;BME280;64039;53.060;9.342;2023-03-24T01:19:51;99577.84;;;9.37;100.00
75460;BME280;64039;53.060;9.342;2023-03-24T01:22:16;99576.16;;;9.39;100.00
75460;BME280;64039;53.060;9.342;2023-03-24T01:24:42;99575.28;;;9.40;100.00
75460;BME280;64039;53.060;9.342;2023-03-24T01:27:08;99573.59;;;9.47;100.00
75460;BME280;64039;53.060;9.342;2023-03-24T01:29:34;99562.34;;;9.47;100.00
75460;BME280;64039;53.060;9.342;2023-03-24T01:31:59;99557.13;;;9.47;100.00
75460;BME280;64039;53.060;9.342;2023-03-24T01:34:25;99559.75;;;9.50;100.00
75460;BME280;64039;53.060;9.342;2023-03-24T01:36:50;99558.91;;;9.54;100.00
75460;BME280;64039;53.060;9.342;2023-03-24T01:39:16;99557.13;;;9.39;100.00
75460;BME280;64039;53.060;9.342;2023-03-24T01:41:41;99557.16;;;9.53;100.00
75460;BME280;64039;53.060;9.342;2023-03-24T01:46:57;99542.47;;;9.52;100.00
75460;BME280;64039;53.060;9.342;2023-03-24T01:49:26;99529.44;;;9.49;100.00
75460;BME280;64039;53.060;9.342;2023-03-24T01:51:56;99525.13;;;9.48;100.00
75460;BME280;64039;53.060;9.342;2023-03-24T01:54:40;99519.94;;;9.54;100.00
75460;BME280;64039;53.060;9.342;2023-03-24T01:57:10;99512.97;;;9.40;100.00
75460;BME280;64039;53.060;9.342;2023-03-24T01:59:40;99512.13;;;9.46;100.00
75460;BME280;64039;53.060;9.342;2023-03-24T02:02:07;99511.28;;;9.53;100.00
75460;BME280;64039;53.060;9.342;2023-03-24T02:04:56;99507.78;;;9.43;100.00
75460;BME280;64039;53.060;9.342;2023-03-24T02:07:41;99500.00;;;9.53;100.00
75460;BME280;64039;53.060;9.342;2023-03-24T02:10:14;99482.75;;;9.56;100.00
75460;BME280;64039;53.060;9.342;2023-03-24T02:12:41;99480.13;;;9.55;100.00
75460;BME280;64039;53.060;9.342;2023-03-24T02:15:09;99478.38;;;9.48;100.00
75460;BME280;64039;53.060;9.342;2023-03-24T02:18:12;99473.16;;;9.44;100.00
75460;BME280;64039;53.060;9.342;2023-03-24T02:24:16;99466.19;;;9.36;100.00
75460;BME280;64039;53.060;9.342;2023-03-24T02:34:46;99446.34;;;9.52;100.00
75460;BME280;64039;53.060;9.342;2023-03-24T02:43:21;99426.41;;;9.49;100.00
75460;BME280;64039;53.060;9.342;2023-03-24T02:46:03;99424.69;;;9.43;100.00
75460;BME280;64039;53.060;9.342;2023-03-24T02:51:39;99420.41;;;9.61;100.00
75460;BME280;64039;53.060;9.342;2023-03-24T02:54:17;99409.13;;;9.57;100.00
75460;BME280;64039;53.060;9.342;2023-03-24T02:57:03;99404.84;;;9.67;100.00
75460;BME280;64039;53.060;9.342;2023-03-24T02:59:34;99401.34;;;9.54;100.00
75460;BME280;64039;53.060;9.342;2023-03-24T03:02:22;99387.50;;;9.65;100.00
75460;BME280;64039;53.060;9.342;2023-03-24T03:04:57;99384.91;;;9.65;100.00
75460;BME280;64039;53.060;9.342;2023-03-24T03:07:28;99380.59;;;9.68;100.00
75460;BME280;64039;53.060;9.342;2023-03-24T03:10:05;99375.38;;;9.70;100.00
75460;BME280;64039;53.060;9.342;2023-03-24T03:12:34;99369.31;;;9.74;100.00
75460;BME280;64039;53.060;9.342;2023-03-24T03:15:05;99365.00;;;9.68;100.00
75460;BME280;64039;53.060;9.342;2023-03-24T03:17:37;99366.72;;;9.77;100.00
75460;BME280;64039;53.060;9.342;2023-03-24T03:20:09;99354.63;;;9.78;100.00
75460;BME280;64039;53.060;9.342;2023-03-24T03:22:47;99357.22;;;9.78;100.00
75460;BME280;64039;53.060;9.342;2023-03-24T03:25:19;99346.81;;;9.78;100.00
75460;BME280;64039;53.060;9.342;2023-03-24T03:27:47;99339.00;;;9.82;100.00
75460;BME280;64039;53.060;9.342;2023-03-24T03:30:28;99344.22;;;9.74;100.00
75460;BME280;64039;53.060;9.342;2023-03-24T03:33:05;99342.50;;;9.87;100.00
75460;BME280;64039;53.060;9.342;2023-03-24T03:35:37;99339.88;;;9.84;100.00
75460;BME280;64039;53.060;9.342;2023-03-24T03:40:59;99339.03;;;9.84;100.00
75460;BME280;64039;53.060;9.342;2023-03-24T03:43:26;99332.97;;;9.85;100.00
75460;BME280;64039;53.060;9.342;2023-03-24T03:45:53;99320.84;;;9.88;100.00
75460;BME280;64039;53.060;9.342;2023-03-24T03:48:19;99318.25;;;9.93;100.00
75460;BME280;64039;53.060;9.342;2023-03-24T03:50:45;99306.09;;;9.94;100.00
75460;BME280;64039;53.060;9.342;2023-03-24T03:53:14;99302.63;;;9.99;100.00
75460;BME280;64039;53.060;9.342;2023-03-24T03:55:41;99311.28;;;9.98;100.00
75460;BME280;64039;53.060;9.342;2023-03-24T03:58:07;99309.56;;;10.02;100.00
75460;BME280;64039;53.060;9.342;2023-03-24T04:00:34;99299.16;;;10.00;100.00
75460;BME280;64039;53.060;9.342;2023-03-24T04:03:25;99289.63;;;10.02;100.00
75460;BME280;64039;53.060;9.342;2023-03-24T04:06:04;99283.53;;;10.13;100.00
75460;BME280;64039;53.060;9.342;2023-03-24T04:09:06;99293.09;;;10.12;100.00
75460;BME280;64039;53.060;9.342;2023-03-24T04:18:10;99287.88;;;10.14;100.00
75460;BME280;64039;53.060;9.342;2023-03-24T04:32:04;99285.25;;;10.26;100.00
75460;BME280;64039;53.060;9.342;2023-03-24T04:34:37;99268.81;;;10.18;100.00
75460;BME280;64039;53.060;9.342;2023-03-24T04:37:11;99272.28;;;10.17;100.00
75460;BME280;64039;53.060;9.342;2023-03-24T04:39:41;99279.19;;;10.21;100.00
75460;BME280;64039;53.060;9.342;2023-03-24T04:42:14;99263.59;;;10.16;100.00
75460;BME280;64039;53.060;9.342;2023-03-24T04:44:42;99267.06;;;10.21;100.00
75460;BME280;64039;53.060;9.342;2023-03-24T04:47:10;99261.84;;;10.26;100.00
75460;BME280;64039;53.060;9.342;2023-03-24T04:49:39;99267.03;;;10.34;100.00
75460;BME280;64039;53.060;9.342;2023-03-24T04:52:06;99260.97;;;10.30;100.00
75460;BME280;64039;53.060;9.342;2023-03-24T04:54:32;99255.78;;;10.29;100.00
75460;BME280;64039;53.060;9.342;2023-03-24T04:56:59;99261.81;;;10.34;100.00
75460;BME280;64039;53.060;9.342;2023-03-24T04:59:26;99260.09;;;10.33;100.00
75460;BME280;64039;53.060;9.342;2023-03-24T05:01:52;99262.69;;;10.36;100.00
75460;BME280;64039;53.060;9.342;2023-03-24T05:04:23;99252.28;;;10.33;100.00
75460;BME280;64039;53.060;9.342;2023-03-24T05:06:49;99249.72;;;10.28;100.00
75460;BME280;64039;53.060;9.342;2023-03-24T05:09:16;99245.38;;;10.26;100.00
75460;BME280;64039;53.060;9.342;2023-03-24T05:11:43;99234.97;;;10.30;100.00
75460;BME280;64039;53.060;9.342;2023-03-24T05:14:08;99238.41;;;10.34;100.00
75460;BME280;64039;53.060;9.342;2023-03-24T05:16:34;99237.56;;;10.41;100.00
75460;BME280;64039;53.060;9.342;2023-03-24T05:19:00;99245.38;;;10.40;100.00
75460;BME280;64039;53.060;9.342;2023-03-24T05:21:26;99228.88;;;10.36;100.00
75460;BME280;64039;53.060;9.342;2023-03-24T05:23:51;99231.47;;;10.42;100.00
75460;BME280;64039;53.060;9.342;2023-03-24T05:26:17;99228.91;;;10.41;100.00
75460;BME280;64039;53.060;9.342;2023-03-24T05:28:43;99229.75;;;10.47;100.00
75460;BME280;64039;53.060;9.342;2023-03-24T05:31:08;99236.66;;;10.47;100.00
75460;BME280;64039;53.060;9.342;2023-03-24T05:33:34;99235.81;;;10.43;100.00
75460;BME280;64039;53.060;9.342;2023-03-24T05:35:59;99234.91;;;10.50;100.00
75460;BME280;64039;53.060;9.342;2023-03-24T05:38:24;99232.31;;;10.52;100.00
75460;BME280;64039;53.060;9.342;2023-03-24T05:40:50;99237.56;;;10.44;100.00
75460;BME280;64039;53.060;9.342;2023-03-24T05:43:15;99228.88;;;10.42;100.00
75460;BME280;64039;53.060;9.342;2023-03-24T05:45:41;99223.66;;;10.47;100.00
75460;BME280;64039;53.060;9.342;2023-03-24T05:48:07;99230.56;;;10.49;100.00
75460;BME280;64039;53.060;9.342;2023-03-24T05:50:36;99222.75;;;10.54;100.00
75460;BME280;64039;53.060;9.342;2023-03-24T05:53:02;99229.72;;;10.53;100.00
75460;BME280;64039;53.060;9.342;2023-03-24T05:55:28;99221.91;;;10.53;100.00
75460;BME280;64039;53.060;9.342;2023-03-24T05:57:54;99227.06;;;10.60;100.00
75460;BME280;64039;53.060;9.342;2023-03-24T06:00:20;99235.75;;;10.59;100.00
75460;BME280;64039;53.060;9.342;2023-03-24T06:02:47;99234.03;;;10.58;100.00
75460;BME280;64039;53.060;9.342;2023-03-24T06:05:13;99231.41;;;10.61;100.00
75460;BME280;64039;53.060;9.342;2023-03-24T06:07:39;99233.13;;;10.63;100.00
75460;BME280;64039;53.060;9.342;2023-03-24T06:10:08;99234.84;;;10.69;100.00
75460;BME280;64039;53.060;9.342;2023-03-24T06:12:34;99228.78;;;10.68;100.00
75460;BME280;64039;53.060;9.342;2023-03-24T06:15:00;99227.91;;;10.68;100.00
75460;BME280;64039;53.060;9.342;2023-03-24T06:17:27;99230.53;;;10.69;100.00
75460;BME280;64039;53.060;9.342;2023-03-24T06:19:53;99234.00;;;10.65;100.00
75460;BME280;64039;53.060;9.342;2023-03-24T06:22:32;99253.06;;;10.67;100.00
75460;BME280;64039;53.060;9.342;2023-03-24T06:24:57;99249.59;;;10.70;100.00
75460;BME280;64039;53.060;9.342;2023-03-24T06:27:24;99245.25;;;10.72;100.00
75460;BME280;64039;53.060;9.342;2023-03-24T06:29:53;99266.06;;;10.74;100.00
75460;BME280;64039;53.060;9.342;2023-03-24T06:32:19;99263.44;;;10.70;100.00
75460;BME280;64039;53.060;9.342;2023-03-24T06:34:45;99270.38;;;10.72;100.00
75460;BME280;64039;53.060;9.342;2023-03-24T06:37:10;99283.41;;;10.73;100.00
75460;BME280;64039;53.060;9.342;2023-03-24T06:39:36;99287.72;;;10.76;100.00
75460;BME280;64039;53.060;9.342;2023-03-24T06:42:02;99309.44;;;10.75;100.00
75460;BME280;64039;53.060;9.342;2023-03-24T06:44:27;99312.00;;;10.82;100.00
75460;BME280;64039;53.060;9.342;2023-03-24T06:46:53;99293.81;;;10.70;100.00
75460;BME280;64039;53.060;9.342;2023-03-24T06:49:18;99334.59;;;10.68;100.00
75460;BME280;64039;53.060;9.342;2023-03-24T06:51:44;99333.75;;;10.63;100.00
75460;BME280;64039;53.060;9.342;2023-03-24T06:54:10;99324.19;;;10.66;100.00
75460;BME280;64039;53.060;9.342;2023-03-24T06:56:35;99337.22;;;10.57;100.00
75460;BME280;64039;53.060;9.342;2023-03-24T06:59:00;99345.94;;;10.50;100.00
75460;BME280;64039;53.060;9.342;2023-03-24T07:01:26;99359.78;;;10.57;100.00
75460;BME280;64039;53.060;9.342;2023-03-24T07:03:52;99358.91;;;10.56;100.00
75460;BME280;64039;53.060;9.342;2023-03-24T07:06:18;99370.19;;;10.55;100.00
75460;BME280;64039;53.060;9.342;2023-03-24T07:08:44;99373.69;;;10.45;100.00
75460;BME280;64039;53.060;9.342;2023-03-24T07:11:10;99373.69;;;10.46;100.00
75460;BME280;64039;53.060;9.342;2023-03-24T07:13:36;99377.13;;;10.47;100.00
75460;BME280;64039;53.060;9.342;2023-03-24T07:16:01;99381.47;;;10.60;100.00
75460;BME280;64039;53.060;9.342;2023-03-24T07:18:27;99384.03;;;10.73;100.00
75460;BME280;64039;53.060;9.342;2023-03-24T07:20:52;99385.72;;;10.91;100.00
75460;BME280;64039;53.060;9.342;2023-03-24T07:23:18;99389.19;;;10.88;100.00
75460;BME280;64039;53.060;9.342;2023-03-24T07:25:44;99403.13;;;10.62;100.00
75460;BME280;64039;53.060;9.342;2023-03-24T07:28:10;99413.53;;;10.70;100.00
75460;BME280;64039;53.060;9.342;2023-03-24T07:30:35;99435.25;;;10.61;100.00
75460;BME280;64039;53.060;9.342;2023-03-24T07:33:05;99436.09;;;10.57;100.00
75460;BME280;64039;53.060;9.342;2023-03-24T07:35:31;99451.72;;;10.46;100.00
75460;BME280;64039;53.060;9.342;2023-03-24T07:37:58;99456.91;;;10.52;100.00
75460;BME280;64039;53.060;9.342;2023-03-24T07:40:24;99456.88;;;10.29;100.00
75460;BME280;64039;53.060;9.342;2023-03-24T07:42:49;99458.63;;;10.33;100.00
75460;BME280;64039;53.060;9.342;2023-03-24T07:45:16;99454.28;;;10.12;100.00
75460;BME280;64039;53.060;9.342;2023-03-24T07:47:45;99465.53;;;10.10;100.00
75460;BME280;64039;53.060;9.342;2023-03-24T07:50:12;99465.53;;;10.11;100.00
75460;BME280;64039;53.060;9.342;2023-03-24T07:52:39;99471.59;;;10.02;100.00
75460;BME280;64039;53.060;9.342;2023-03-24T07:55:07;99469.88;;;10.25;100.00
75460;BME280;64039;53.060;9.342;2023-03-24T07:57:34;99474.22;;;10.35;100.00
75460;BME280;64039;53.060;9.342;2023-03-24T08:00:03;99477.72;;;10.54;100.00
75460;BME280;64039;53.060;9.342;2023-03-24T08:02:55;99484.66;;;10.58;100.00
75460;BME280;64039;53.060;9.342;2023-03-24T08:05:21;99494.19;;;10.47;100.00
75460;BME280;64039;53.060;9.342;2023-03-24T08:07:50;99502.88;;;10.47;100.00
75460;BME280;64039;53.060;9.342;2023-03-24T08:10:24;99502.00;;;10.45;100.00
75460;BME280;64039;53.060;9.342;2023-03-24T08:12:51;99514.16;;;10.52;100.00
75460;BME280;64039;53.060;9.342;2023-03-24T08:15:17;99515.91;;;10.57;100.00
75460;BME280;64039;53.060;9.342;2023-03-24T08:17:43;99531.50;;;10.80;100.00
75460;BME280;64039;53.060;9.342;2023-03-24T08:20:10;99512.44;;;10.82;100.00
75460;BME280;64039;53.060;9.342;2023-03-24T08:22:42;99522.81;;;10.62;100.00
75460;BME280;64039;53.060;9.342;2023-03-24T08:25:10;99520.25;;;10.68;100.00
75460;BME280;64039;53.060;9.342;2023-03-24T08:27:37;99537.59;;;10.76;100.00
75460;BME280;64039;53.060;9.342;2023-03-24T08:30:04;99530.66;;;10.82;100.00
75460;BME280;64039;53.060;9.342;2023-03-24T08:32:32;99532.38;;;10.94;100.00
75460;BME280;64039;53.060;9.342;2023-03-24T08:34:57;99534.09;;;11.08;100.00
75460;BME280;64039;53.060;9.342;2023-03-24T08:37:22;99539.31;;;11.06;100.00
75460;BME280;64039;53.060;9.342;2023-03-24T08:39:48;99541.88;;;11.00;100.00
75460;BME280;64039;53.060;9.342;2023-03-24T08:42:13;99536.69;;;11.01;100.00
75460;BME280;64039;53.060;9.342;2023-03-24T08:44:39;99542.78;;;11.04;100.00
75460;BME280;64039;53.060;9.342;2023-03-24T08:47:06;99539.31;;;10.91;100.00
75460;BME280;64039;53.060;9.342;2023-03-24T08:49:31;99560.13;;;11.01;100.00
75460;BME280;64039;53.060;9.342;2023-03-24T08:51:56;99577.47;;;10.92;100.00
75460;BME280;64039;53.060;9.342;2023-03-24T08:54:22;99570.53;;;10.75;100.00
75460;BME280;64039;53.060;9.342;2023-03-24T08:56:49;99563.59;;;10.76;100.00
75460;BME280;64039;53.060;9.342;2023-03-24T08:59:15;99554.94;;;10.52;100.00
75460;BME280;64039;53.060;9.342;2023-03-24T09:01:40;99559.25;;;10.50;100.00
75460;BME280;64039;53.060;9.342;2023-03-24T09:04:06;99565.31;;;10.50;100.00
75460;BME280;64039;53.060;9.342;2023-03-24T09:06:31;99565.34;;;10.52;100.00
75460;BME280;64039;53.060;9.342;2023-03-24T09:08:57;99574.84;;;10.51;100.00
75460;BME280;64039;53.060;9.342;2023-03-24T09:11:23;99579.16;;;10.38;100.00
75460;BME280;64039;53.060;9.342;2023-03-24T09:13:49;99581.75;;;10.35;100.00
75460;BME280;64039;53.060;9.342;2023-03-24T09:16:15;99586.13;;;10.49;100.00
75460;BME280;64039;53.060;9.342;2023-03-24T09:18:41;99586.16;;;10.57;100.00
75460;BME280;64039;53.060;9.342;2023-03-24T09:21:07;99588.75;;;10.61;100.00
75460;BME280;64039;53.060;9.342;2023-03-24T09:23:33;99567.94;;;10.58;100.00
75460;BME280;64039;53.060;9.342;2023-03-24T09:25:59;99586.16;;;10.61;100.00
75460;BME280;64039;53.060;9.342;2023-03-24T09:28:25;99592.22;;;10.63;100.00
75460;BME280;64039;53.060;9.342;2023-03-24T09:30:56;99603.53;;;10.79;100.00
75460;BME280;64039;53.060;9.342;2023-03-24T09:33:22;99587.03;;;10.73;100.00
75460;BME280;64039;53.060;9.342;2023-03-24T09:35:59;99605.25;;;10.85;100.00
75460;BME280;64039;53.060;9.342;2023-03-24T09:38:25;99605.25;;;10.91;100.00
75460;BME280;64039;53.060;9.342;2023-03-24T09:40:54;99601.78;;;10.89;100.00
75460;BME280;64039;53.060;9.342;2023-03-24T09:43:45;99607.88;;;10.96;100.00
75460;BME280;64039;53.060;9.342;2023-03-24T09:46:19;99616.53;;;10.92;100.00
75460;BME280;64039;53.060;9.342;2023-03-24T09:48:54;99600.91;;;10.73;100.00
75460;BME280;64039;53.060;9.342;2023-03-24T09:51:29;99607.88;;;10.74;100.00
75460;BME280;64039;53.060;9.342;2023-03-24T09:57:01;99612.22;;;10.86;100.00
75460;BME280;64039;53.060;9.342;2023-03-24T10:01:53;99617.41;;;10.86;100.00
75460;BME280;64039;53.060;9.342;2023-03-24T10:04:23;99615.66;;;10.80;100.00
75460;BME280;64039;53.060;9.342;2023-03-24T10:06:55;99610.44;;;10.88;100.00
75460;BME280;64039;53.060;9.342;2023-03-24T10:09:23;99608.75;;;10.98;100.00
75460;BME280;64039;53.060;9.342;2023-03-24T10:21:12;99618.13;;;11.86;97.67
75460;BME280;64039;53.060;9.342;2023-03-24T10:28:44;99617.31;;;11.71;94.58
75460;BME280;64039;53.060;9.342;2023-03-24T10:31:14;99625.09;;;11.77;94.98
75460;BME280;64039;53.060;9.342;2023-03-24T10:33:43;99626.81;;;11.95;93.48
75460;BME280;64039;53.060;9.342;2023-03-24T10:36:15;99611.13;;;12.11;89.79
75460;BME280;64039;53.060;9.342;2023-03-24T10:38:43;99625.94;;;12.03;88.77
75460;BME280;64039;53.060;9.342;2023-03-24T10:41:18;99640.72;;;12.04;88.88
75460;BME280;64039;53.060;9.342;2023-03-24T10:43:45;99627.59;;;12.21;87.53
75460;BME280;64039;53.060;9.342;2023-03-24T10:46:19;99628.44;;;12.24;88.24
75460;BME280;64039;53.060;9.342;2023-03-24T10:48:47;99629.34;;;12.20;86.93
75460;BME280;64039;53.060;9.342;2023-03-24T10:51:26;99637.25;;;11.95;85.16
75460;BME280;64039;53.060;9.342;2023-03-24T10:54:10;99643.25;;;12.21;87.52
75460;BME280;64039;53.060;9.342;2023-03-24T10:56:38;99634.63;;;11.95;85.59
75460;BME280;64039;53.060;9.342;2023-03-24T10:59:26;99645.94;;;12.01;86.36
75460;BME280;64039;53.060;9.342;2023-03-24T11:02:14;99659.84;;;11.98;84.39
75460;BME280;64039;53.060;9.342;2023-03-24T11:04:57;99661.59;;;12.01;82.83
75460;BME280;64039;53.060;9.342;2023-03-24T11:07:33;99658.00;;;12.28;83.82
75460;BME280;64039;53.060;9.342;2023-03-24T11:12:39;99660.69;;;12.11;82.12
75460;BME280;64039;53.060;9.342;2023-03-24T11:15:21;99670.25;;;12.04;82.36
75460;BME280;64039;53.060;9.342;2023-03-24T11:18:20;99671.09;;;12.20;81.58
75460;BME280;64039;53.060;9.342;2023-03-24T11:20:52;99665.81;;;12.33;81.80
75460;BME280;64039;53.060;9.342;2023-03-24T11:23:31;99671.03;;;12.36;83.31
75460;BME280;64039;53.060;9.342;2023-03-24T11:28:28;99691.06;;;12.21;83.73
75460;BME280;64039;53.060;9.342;2023-03-24T11:31:05;99672.88;;;12.01;85.81
75460;BME280;64039;53.060;9.342;2023-03-24T11:33:33;99687.56;;;12.27;83.12
75460;BME280;64039;53.060;9.342;2023-03-24T11:36:05;99682.22;;;12.56;82.00
75460;BME280;64039;53.060;9.342;2023-03-24T11:38:34;99691.56;;;12.96;82.14
75460;BME280;64039;53.060;9.342;2023-03-24T11:41:01;99676.47;;;13.34;79.97
75460;BME280;64039;53.060;9.342;2023-03-24T11:43:29;99685.09;;;13.47;83.41
75460;BME280;64039;53.060;9.342;2023-03-24T11:48:40;99668.59;;;13.40;75.09
75460;BME280;64039;53.060;9.342;2023-03-24T11:51:36;99676.44;;;13.37;73.56
75460;BME280;64039;53.060;9.342;2023-03-24T11:54:09;99688.56;;;13.50;72.97
75460;BME280;64039;53.060;9.342;2023-03-24T11:56:40;99670.25;;;13.50;71.87
75460;BME280;64039;53.060;9.342;2023-03-24T12:01:37;99659.34;;;13.97;68.23
75460;BME280;64039;53.060;9.342;2023-03-24T12:07:48;99678.09;;;13.50;69.16
75460;BME280;64039;53.060;9.342;2023-03-24T12:12:58;99683.31;;;13.52;69.04
75460;BME280;64039;53.060;9.342;2023-03-24T12:15:39;99676.28;;;13.59;69.98
75460;BME280;64039;53.060;9.342;2023-03-24T12:20:58;99692.28;;;14.12;69.38
75460;BME280;64039;53.060;9.342;2023-03-24T12:26:22;99686.84;;;13.45;65.92
75460;BME280;64039;53.060;9.342;2023-03-24T12:32:06;99687.41;;;13.79;63.13
75460;BME280;64039;53.060;9.342;2023-03-24T12:42:45;99685.59;;;14.59;64.33
75460;BME280;64039;53.060;9.342;2023-03-24T12:45:37;99700.38;;;14.63;64.12
75460;BME280;64039;53.060;9.342;2023-03-24T12:48:14;99697.88;;;14.56;62.70
75460;BME280;64039;53.060;9.342;2023-03-24T12:51:03;99690.47;;;14.19;60.67
75460;BME280;64039;53.060;9.342;2023-03-24T12:56:26;99685.06;;;14.33;62.46
75460;BME280;64039;53.060;9.342;2023-03-24T12:59:09;99677.88;;;14.49;60.81
75460;BME280;64039;53.060;9.342;2023-03-24T13:01:54;99683.94;;;14.54;60.92
75460;BME280;64039;53.060;9.342;2023-03-24T13:04:36;99683.16;;;14.44;61.22
75460;BME280;64039;53.060;9.342;2023-03-24T13:12:26;99686.50;;;14.57;59.23
75460;BME280;64039;53.060;9.342;2023-03-24T13:20:02;99677.09;;;14.42;56.68
75460;BME280;64039;53.060;9.342;2023-03-24T13:22:33;99656.16;;;14.40;57.67
75460;BME280;64039;53.060;9.342;2023-03-24T13:25:00;99658.53;;;14.60;56.90
75460;BME280;64039;53.060;9.342;2023-03-24T13:27:31;99642.03;;;14.52;57.07
75460;BME280;64039;53.060;9.342;2023-03-24T13:30:22;99664.75;;;14.52;58.59
75460;BME280;64039;53.060;9.342;2023-03-24T13:33:00;99654.47;;;14.39;56.65
75460;BME280;64039;53.060;9.342;2023-03-24T13:38:28;99653.78;;;14.23;57.68
75460;BME280;64039;53.060;9.342;2023-03-24T13:40:57;99633.66;;;14.27;55.25
75460;BME280;64039;53.060;9.342;2023-03-24T13:43:25;99642.69;;;14.03;55.28
75460;BME280;64039;53.060;9.342;2023-03-24T13:46:01;99646.03;;;14.14;55.36
75460;BME280;64039;53.060;9.342;2023-03-24T13:48:30;99650.88;;;14.45;55.55
75460;BME280;64039;53.060;9.342;2023-03-24T13:50:59;99651.97;;;14.28;54.57
75460;BME280;64039;53.060;9.342;2023-03-24T13:54:34;99652.28;;;14.02;55.29
75460;BME280;64039;53.060;9.342;2023-03-24T13:56:36;99652.41;;;13.90;55.34
75460;BME280;64039;53.060;9.342;2023-03-24T13:59:22;99664.56;;;13.95;55.65
75460;BME280;64039;53.060;9.342;2023-03-24T14:02:10;99649.31;;;13.54;55.78
75460;BME280;64039;53.060;9.342;2023-03-24T14:04:44;99654.47;;;13.63;55.90
75460;BME280;64039;53.060;9.342;2023-03-24T14:17:53;99654.38;;;13.71;57.88
75460;BME280;64039;53.060;9.342;2023-03-24T14:20:33;99658.66;;;13.78;58.88
75460;BME280;64039;53.060;9.342;2023-03-24T14:23:02;99662.09;;;13.83;58.97
75460;BME280;64039;53.060;9.342;2023-03-24T14:25:30;99661.41;;;13.65;59.14
75460;BME280;64039;53.060;9.342;2023-03-24T14:28:10;99652.63;;;13.71;58.83
75460;BME280;64039;53.060;9.342;2023-03-24T14:36:39;99662.16;;;13.75;60.22
75460;BME280;64039;53.060;9.342;2023-03-24T14:39:35;99671.97;;;13.53;62.13
75460;BME280;64039;53.060;9.342;2023-03-24T14:42:26;99661.56;;;13.48;63.62
75460;BME280;64039;53.060;9.342;2023-03-24T14:44:55;99660.88;;;13.23;64.28
75460;BME280;64039;53.060;9.342;2023-03-24T14:47:31;99668.59;;;13.42;63.76
75460;BME280;64039;53.060;9.342;2023-03-24T14:49:59;99670.28;;;13.47;63.39
75460;BME280;64039;53.060;9.342;2023-03-24T14:52:34;99664.09;;;13.56;62.38
75460;BME280;64039;53.060;9.342;2023-03-24T14:55:05;99660.69;;;13.48;62.42
75460;BME280;64039;53.060;9.342;2023-03-24T14:57:42;99661.47;;;13.59;62.40
75460;BME280;64039;53.060;9.342;2023-03-24T15:00:28;99670.09;;;13.66;62.42
75460;BME280;64039;53.060;9.342;2023-03-24T15:05:40;99653.59;;;13.64;63.66
75460;BME280;64039;53.060;9.342;2023-03-24T15:08:22;99658.88;;;13.56;62.95
75460;BME280;64039;53.060;9.342;2023-03-24T15:10:54;99656.16;;;13.67;62.97
75460;BME280;64039;53.060;9.342;2023-03-24T15:16:05;99666.91;;;13.34;65.67
75460;BME280;64039;53.060;9.342;2023-03-24T15:18:32;99668.63;;;13.31;65.00
75460;BME280;64039;53.060;9.342;2023-03-24T15:20:57;99679.19;;;13.23;67.23
75460;BME280;64039;53.060;9.342;2023-03-24T15:23:25;99664.31;;;13.31;68.90
75460;BME280;64039;53.060;9.342;2023-03-24T15:25:53;99684.31;;;13.31;70.94
75460;BME280;64039;53.060;9.342;2023-03-24T15:28:21;99690.63;;;13.07;72.93
75460;BME280;64039;53.060;9.342;2023-03-24T15:30:48;99689.72;;;13.09;73.77